createdAt,value
2019-03-03T00:00:34.164Z,7.00
2019-03-03T00:03:03.160Z,6.47
2019-03-03T00:05:32.186Z,6.50
2019-03-03T00:08:01.195Z,7.70
2019-03-03T00:10:30.246Z,7.63
2019-03-03T00:12:59.235Z,9.10
2019-03-03T00:15:28.275Z,6.07
2019-03-03T00:17:57.321Z,12.00
2019-03-03T00:20:26.356Z,7.60
2019-03-03T00:22:55.339Z,7.53
2019-03-03T00:25:24.401Z,9.30
2019-03-03T00:27:53.449Z,8.50
2019-03-03T00:30:22.659Z,7.23
2019-03-03T00:32:51.711Z,7.93
2019-03-03T00:35:20.738Z,9.60
2019-03-03T00:37:54.327Z,7.53
2019-03-03T00:40:40.302Z,8.90
2019-03-03T00:43:19.767Z,8.07
2019-03-03T00:46:06.586Z,9.47
2019-03-03T00:48:43.536Z,10.73
2019-03-03T00:51:16.722Z,9.83
2019-03-03T00:54:05.603Z,11.30
2019-03-03T00:56:36.207Z,10.33
2019-03-03T00:59:12.962Z,11.33
2019-03-03T01:01:43.701Z,9.90
2019-03-03T01:04:26.626Z,7.90
2019-03-03T01:06:57.303Z,11.20
2019-03-03T01:09:41.535Z,7.57
2019-03-03T01:12:15.395Z,10.80
2019-03-03T01:14:48.491Z,9.53
2019-03-03T01:17:21.787Z,12.80
2019-03-03T01:19:55.497Z,8.67
2019-03-03T01:22:26.103Z,9.83
2019-03-03T01:24:58.033Z,12.30
2019-03-03T01:27:27.170Z,10.50
2019-03-03T01:29:56.219Z,9.50
2019-03-03T01:32:25.202Z,12.50
2019-03-03T01:34:54.194Z,10.37
2019-03-03T01:37:23.158Z,10.23
2019-03-03T01:39:52.206Z,14.87
2019-03-03T01:42:21.183Z,11.27
2019-03-03T01:44:50.168Z,13.37
2019-03-03T01:47:19.298Z,13.63
2019-03-03T01:49:48.275Z,14.50
2019-03-03T01:52:17.235Z,11.53
2019-03-03T01:54:46.220Z,14.00
2019-03-03T01:57:15.224Z,16.03
2019-03-03T01:59:44.211Z,12.73
2019-03-03T02:02:13.174Z,12.87
2019-03-03T02:04:42.160Z,11.20
2019-03-03T02:07:11.202Z,12.23
2019-03-03T02:09:40.198Z,16.50
2019-03-03T02:12:09.159Z,10.00
2019-03-03T02:14:38.140Z,10.83
2019-03-03T02:17:07.470Z,10.90
2019-03-03T02:19:36.458Z,9.77
2019-03-03T02:22:05.767Z,7.93
2019-03-03T02:24:34.746Z,10.27
2019-03-03T02:27:03.785Z,8.10
2019-03-03T02:29:32.770Z,9.33
2019-03-03T02:32:01.724Z,9.70
2019-03-03T02:34:30.779Z,9.77
2019-03-03T02:36:59.742Z,7.77
2019-03-03T02:39:29.602Z,8.17
2019-03-03T02:41:58.635Z,8.00
2019-03-03T02:44:27.626Z,8.90
2019-03-03T02:46:56.610Z,10.20
2019-03-03T02:49:25.644Z,6.43
2019-03-03T02:51:54.668Z,9.00
2019-03-03T02:54:23.644Z,8.47
2019-03-03T02:56:52.610Z,7.90
2019-03-03T02:59:21.596Z,7.60
2019-03-03T03:01:52.198Z,7.57
2019-03-03T03:04:21.186Z,8.53
2019-03-03T03:06:51.851Z,9.27
2019-03-03T03:09:25.199Z,11.23
2019-03-03T03:11:58.252Z,10.40
2019-03-03T03:14:31.859Z,6.57
2019-03-03T03:17:20.614Z,9.43
2019-03-03T03:19:51.235Z,8.17
2019-03-03T03:22:39.633Z,8.70
2019-03-03T03:25:19.207Z,10.33
2019-03-03T03:27:49.818Z,10.93
2019-03-03T03:30:20.447Z,6.37
2019-03-03T03:33:07.464Z,10.57
2019-03-03T03:35:40.777Z,6.60
2019-03-03T03:38:23.622Z,8.53
2019-03-03T03:40:54.224Z,9.63
2019-03-03T03:43:41.314Z,8.77
2019-03-03T03:46:28.128Z,8.63
2019-03-03T03:48:58.758Z,7.00
2019-03-03T03:51:45.287Z,11.33
2019-03-03T03:54:21.848Z,9.13
2019-03-03T03:56:52.534Z,12.27
2019-03-03T03:59:23.331Z,9.53
2019-03-03T04:02:09.270Z,8.23
2019-03-03T04:04:42.839Z,13.70
2019-03-03T04:07:31.441Z,8.50
2019-03-03T04:10:08.006Z,12.23
2019-03-03T04:12:47.396Z,9.30
2019-03-03T04:15:23.745Z,7.10
2019-03-03T04:18:06.344Z,7.23
2019-03-03T04:20:43.168Z,12.87
2019-03-03T04:23:30.219Z,9.03
2019-03-03T04:26:13.064Z,9.30
2019-03-03T04:28:43.689Z,13.63
2019-03-03T04:31:32.323Z,8.50
2019-03-03T04:34:02.959Z,10.47
2019-03-03T04:36:33.562Z,9.33
2019-03-03T04:39:20.677Z,8.43
2019-03-03T04:41:51.292Z,7.90
2019-03-03T04:44:21.910Z,9.60
2019-03-03T04:46:52.514Z,7.53
2019-03-03T04:49:39.584Z,10.60
2019-03-03T04:52:26.412Z,11.50
2019-03-03T04:54:57.039Z,10.23
2019-03-03T04:57:30.582Z,13.63
2019-03-03T05:00:17.057Z,12.87
2019-03-03T05:02:59.625Z,8.00
2019-03-03T05:05:35.930Z,10.03
2019-03-03T05:08:12.518Z,5.87
2019-03-03T05:10:58.135Z,8.60
2019-03-03T05:13:28.764Z,12.07
2019-03-03T05:16:15.835Z,14.03
2019-03-03T05:18:52.442Z,13.00
2019-03-03T05:21:21.417Z,10.50
2019-03-03T05:23:50.406Z,12.63
2019-03-03T05:26:19.378Z,12.17
2019-03-03T05:28:48.369Z,9.00
2019-03-03T05:31:17.357Z,10.27
2019-03-03T05:33:46.343Z,9.53
2019-03-03T05:36:15.337Z,11.57
2019-03-03T05:38:44.330Z,10.27
2019-03-03T05:41:13.389Z,10.13
2019-03-03T05:43:42.354Z,13.07
2019-03-03T05:46:11.330Z,14.97
2019-03-03T05:48:40.306Z,14.50
2019-03-03T05:51:09.269Z,10.43
2019-03-03T05:53:38.264Z,14.10
2019-03-03T05:56:07.227Z,9.10
2019-03-03T05:58:36.211Z,10.20
2019-03-03T06:01:05.189Z,11.70
2019-03-03T06:03:34.247Z,11.60
2019-03-03T06:06:03.220Z,8.27
2019-03-03T06:08:32.190Z,9.00
2019-03-03T06:11:01.158Z,6.53
2019-03-03T06:13:30.139Z,9.77
2019-03-03T06:15:59.117Z,10.33
2019-03-03T06:18:28.144Z,10.63
2019-03-03T06:20:57.139Z,10.57
2019-03-03T06:23:26.103Z,12.70
2019-03-03T06:25:55.085Z,11.20
2019-03-03T06:28:24.046Z,13.27
2019-03-03T06:30:53.118Z,11.17
2019-03-03T06:33:22.080Z,9.97
2019-03-03T06:35:52.780Z,12.50
2019-03-03T06:38:21.856Z,12.53
2019-03-03T06:40:50.850Z,10.30
2019-03-03T06:43:19.814Z,12.70
2019-03-03T06:45:48.885Z,11.90
2019-03-03T06:48:17.859Z,11.53
2019-03-03T06:50:46.993Z,10.13
2019-03-03T06:53:15.962Z,12.50
2019-03-03T06:55:44.938Z,9.50
2019-03-03T06:58:13.909Z,9.53
2019-03-03T07:00:42.895Z,9.40
2019-03-03T07:03:11.932Z,10.27
2019-03-03T07:05:40.981Z,17.13
2019-03-03T07:08:09.992Z,15.40
2019-03-03T07:10:39.016Z,12.10
2019-03-03T07:13:07.993Z,13.00
2019-03-03T07:15:37.040Z,16.07
2019-03-03T07:18:06.088Z,9.60
2019-03-03T07:20:35.072Z,15.67
2019-03-03T07:23:04.226Z,10.37
2019-03-03T07:25:33.235Z,12.10
2019-03-03T07:28:02.274Z,12.80
2019-03-03T07:30:31.269Z,8.03
2019-03-03T07:33:04.457Z,9.53
2019-03-03T07:35:33.518Z,10.50
2019-03-03T07:38:02.487Z,10.17
2019-03-03T07:40:31.474Z,11.03
2019-03-03T07:43:00.447Z,9.90
2019-03-03T07:45:29.428Z,14.20
2019-03-03T07:47:58.403Z,13.20
2019-03-03T07:50:27.406Z,8.00
2019-03-03T07:52:56.372Z,11.77
2019-03-03T07:55:25.435Z,10.50
2019-03-03T07:57:54.406Z,9.93
2019-03-03T08:00:23.392Z,8.07
2019-03-03T08:02:52.355Z,9.07
2019-03-03T08:05:21.358Z,11.43
2019-03-03T08:07:50.338Z,8.50
2019-03-03T08:10:19.303Z,8.13
2019-03-03T08:12:48.360Z,11.07
2019-03-03T08:15:19.241Z,13.00
2019-03-03T08:17:48.202Z,10.83
2019-03-03T08:20:17.271Z,11.60
2019-03-03T08:22:46.263Z,11.33
2019-03-03T08:25:15.518Z,11.00
2019-03-03T08:27:44.497Z,17.10
2019-03-03T08:30:15.427Z,12.40
2019-03-03T08:32:44.409Z,11.73
2019-03-03T08:35:30.633Z,14.63
2019-03-03T08:37:59.602Z,14.07
2019-03-03T08:40:28.576Z,9.30
2019-03-03T08:43:11.479Z,14.53
2019-03-03T08:45:51.103Z,13.07
2019-03-03T08:48:33.715Z,14.43
2019-03-03T08:51:07.280Z,11.43
2019-03-03T08:53:46.364Z,11.57
2019-03-03T08:56:19.558Z,12.07
2019-03-03T08:58:55.911Z,9.10
2019-03-03T09:01:44.623Z,11.13
2019-03-03T09:04:17.679Z,9.67
2019-03-03T09:06:57.511Z,11.17
2019-03-03T09:09:34.121Z,14.47
2019-03-03T09:12:04.741Z,11.03
2019-03-03T09:14:51.732Z,14.70
2019-03-03T09:17:37.719Z,10.60
2019-03-03T09:20:28.907Z,8.70
2019-03-03T09:23:11.447Z,11.50
2019-03-03T09:25:50.983Z,7.10
2019-03-03T09:28:30.936Z,8.93
2019-03-03T09:31:18.114Z,12.77
2019-03-03T09:33:54.598Z,10.80
2019-03-03T09:36:37.433Z,7.00
2019-03-03T09:39:20.927Z,13.47
2019-03-03T09:41:51.572Z,11.50
2019-03-03T09:44:27.745Z,13.87
2019-03-03T09:46:58.383Z,12.10
2019-03-03T09:49:47.257Z,10.40
2019-03-03T09:52:17.908Z,10.73
2019-03-03T09:54:50.370Z,12.53
2019-03-03T09:57:20.877Z,9.17
2019-03-03T09:59:57.454Z,9.33
2019-03-03T10:02:30.815Z,9.43
2019-03-03T10:05:01.452Z,13.90
2019-03-03T10:07:44.358Z,13.77
2019-03-03T10:10:24.310Z,10.93
2019-03-03T10:12:57.862Z,10.23
2019-03-03T10:15:34.399Z,8.63
2019-03-03T10:18:14.018Z,12.80
2019-03-03T10:20:56.614Z,9.20
2019-03-03T10:23:30.218Z,8.03
2019-03-03T10:26:03.687Z,9.83
2019-03-03T10:28:34.311Z,8.47
2019-03-03T10:31:21.214Z,11.83
2019-03-03T10:34:00.632Z,7.63
2019-03-03T10:36:31.311Z,8.13
2019-03-03T10:39:01.930Z,11.23
2019-03-03T10:41:44.765Z,9.20
2019-03-03T10:44:20.892Z,11.67
2019-03-03T10:46:51.595Z,10.90
2019-03-03T10:49:22.220Z,12.80
2019-03-03T10:51:55.798Z,9.07
2019-03-03T10:54:41.372Z,6.93
2019-03-03T10:57:15.311Z,12.83
2019-03-03T10:59:45.915Z,13.37
2019-03-03T11:02:22.340Z,7.93
2019-03-03T11:05:04.682Z,11.27
2019-03-03T11:07:53.874Z,9.17
2019-03-03T11:10:30.423Z,9.57
2019-03-03T11:13:01.113Z,9.43
2019-03-03T11:15:48.262Z,10.53
2019-03-03T11:18:37.102Z,10.67
2019-03-03T11:21:10.863Z,10.30
2019-03-03T11:23:59.865Z,10.73
2019-03-03T11:26:42.706Z,7.97
2019-03-03T11:29:13.398Z,11.67
2019-03-03T11:31:46.735Z,9.53
2019-03-03T11:34:20.339Z,12.13
2019-03-03T11:36:53.642Z,9.83
2019-03-03T11:39:27.238Z,8.50
2019-03-03T11:41:57.919Z,10.73
2019-03-03T11:44:44.480Z,10.07
2019-03-03T11:47:20.880Z,9.77
2019-03-03T11:49:51.519Z,13.47
2019-03-03T11:52:28.046Z,11.17
2019-03-03T11:55:07.599Z,11.00
2019-03-03T11:57:38.239Z,9.60
2019-03-03T12:00:28.236Z,8.43
2019-03-03T12:02:58.873Z,12.23
2019-03-03T12:05:32.210Z,7.97
2019-03-03T12:08:05.924Z,9.53
2019-03-03T12:10:39.453Z,9.67
2019-03-03T12:13:26.275Z,9.07
2019-03-03T12:15:56.950Z,8.67
2019-03-03T12:18:27.722Z,10.70
2019-03-03T12:20:58.395Z,12.17
2019-03-03T12:23:34.774Z,9.27
2019-03-03T12:26:05.616Z,9.60
2019-03-03T12:28:52.343Z,8.60
2019-03-03T12:31:34.694Z,10.73
2019-03-03T12:34:11.912Z,8.30
2019-03-03T12:36:42.530Z,7.63
2019-03-03T12:39:19.860Z,9.87
2019-03-03T12:41:52.893Z,8.53
2019-03-03T12:44:39.943Z,10.80
2019-03-03T12:47:26.730Z,7.67
2019-03-03T12:49:57.351Z,11.77
2019-03-03T12:52:42.959Z,12.23
2019-03-03T12:55:13.675Z,6.40
2019-03-03T12:57:44.274Z,6.80
2019-03-03T13:00:27.261Z,8.63
2019-03-03T13:03:15.862Z,7.77
2019-03-03T13:06:02.693Z,9.30
2019-03-03T13:08:59.348Z,8.63
2019-03-03T13:11:35.346Z,6.27
2019-03-03T13:14:14.779Z,5.97
2019-03-03T13:16:48.616Z,9.40
2019-03-03T13:19:35.845Z,9.40
2019-03-03T13:22:21.751Z,8.60
2019-03-03T13:25:10.547Z,6.73
2019-03-03T13:27:41.141Z,10.33
2019-03-03T13:30:14.309Z,10.33
2019-03-03T13:32:53.438Z,5.23
2019-03-03T13:35:30.048Z,7.37
2019-03-03T13:38:00.671Z,5.63
2019-03-03T13:40:31.298Z,8.03
2019-03-03T13:43:00.269Z,8.63
2019-03-03T13:45:31.031Z,9.07
2019-03-03T13:48:00.198Z,5.87
2019-03-03T13:50:29.417Z,6.93
2019-03-03T13:52:58.550Z,4.07
2019-03-03T13:55:27.599Z,7.47
2019-03-03T13:57:56.646Z,9.70
2019-03-03T14:00:26.401Z,8.83
2019-03-03T14:02:55.526Z,7.07
2019-03-03T14:05:24.654Z,4.57
2019-03-03T14:07:53.786Z,7.00
2019-03-03T14:10:22.783Z,6.07
2019-03-03T14:12:51.751Z,6.27
2019-03-03T14:15:20.800Z,7.47
2019-03-03T14:17:49.838Z,6.73
2019-03-03T14:20:20.757Z,7.10
2019-03-03T14:22:51.079Z,7.87
2019-03-03T14:25:20.214Z,5.07
2019-03-03T14:27:49.255Z,6.63
2019-03-03T14:30:21.063Z,5.53
2019-03-03T14:32:50.027Z,5.93
2019-03-03T14:35:19.093Z,7.03
2019-03-03T14:37:48.082Z,5.10
2019-03-03T14:40:23.262Z,4.97
2019-03-03T14:42:52.321Z,4.73
2019-03-03T14:45:21.560Z,3.83
2019-03-03T14:47:50.626Z,4.73
2019-03-03T14:50:21.913Z,5.33
2019-03-03T14:52:56.104Z,3.53
2019-03-03T14:55:25.195Z,6.43
2019-03-03T14:57:54.190Z,3.40
2019-03-03T15:00:29.074Z,6.10
2019-03-03T15:02:59.686Z,7.53
2019-03-03T15:05:29.052Z,4.53
2019-03-03T15:07:58.153Z,3.93
2019-03-03T15:10:27.302Z,4.93
2019-03-03T15:12:56.392Z,3.70
2019-03-03T15:15:30.976Z,6.40
2019-03-03T15:18:00.106Z,5.30
2019-03-03T15:20:29.226Z,4.87
2019-03-03T15:22:58.218Z,7.03
2019-03-03T15:25:27.332Z,4.50
2019-03-03T15:27:56.475Z,5.67
2019-03-03T15:30:25.837Z,8.20
2019-03-03T15:32:54.813Z,4.70
2019-03-03T15:35:23.880Z,7.87
2019-03-03T15:37:53.043Z,6.10
2019-03-03T15:40:26.445Z,6.97
2019-03-03T15:42:55.424Z,5.10
2019-03-03T15:45:27.221Z,6.10
2019-03-03T15:47:56.274Z,7.63
2019-03-03T15:50:25.575Z,10.03
2019-03-03T15:52:54.624Z,6.53
2019-03-03T15:55:25.843Z,6.93
2019-03-03T15:57:54.883Z,8.40
2019-03-03T16:00:26.734Z,7.33
2019-03-03T16:02:55.772Z,9.40
2019-03-03T16:05:24.895Z,8.47
2019-03-03T16:07:53.931Z,6.93
2019-03-03T16:10:24.547Z,6.70
2019-03-03T16:12:53.548Z,9.37
2019-03-03T16:15:23.389Z,10.50
2019-03-03T16:17:52.532Z,4.67
2019-03-03T16:20:23.842Z,7.27
2019-03-03T16:22:53.076Z,10.27
2019-03-03T16:25:23.669Z,5.23
2019-03-03T16:27:52.722Z,8.53
2019-03-03T16:30:22.833Z,6.30
2019-03-03T16:32:52.049Z,9.90
2019-03-03T16:35:21.027Z,4.53
2019-03-03T16:37:50.075Z,6.40
2019-03-03T16:40:25.810Z,5.57
2019-03-03T16:42:54.851Z,4.47
2019-03-03T16:45:23.830Z,7.53
2019-03-03T16:47:52.906Z,5.93
2019-03-03T16:50:22.914Z,6.60
2019-03-03T16:52:52.341Z,6.23
2019-03-03T16:55:21.945Z,8.97
2019-03-03T16:57:51.171Z,9.40
2019-03-03T17:00:27.505Z,7.40
2019-03-03T17:02:56.471Z,7.57
2019-03-03T17:05:29.488Z,7.87
2019-03-03T17:07:58.613Z,5.10
2019-03-03T17:10:27.595Z,7.43
2019-03-03T17:12:56.611Z,6.50
2019-03-03T17:15:29.286Z,6.10
2019-03-03T17:17:58.364Z,5.27
2019-03-03T17:20:27.511Z,6.23
2019-03-03T17:22:56.582Z,4.10
2019-03-03T17:25:26.881Z,9.03
2019-03-03T17:27:55.939Z,3.90
2019-03-03T17:30:26.066Z,8.80
2019-03-03T17:32:55.158Z,5.60
2019-03-03T17:35:24.197Z,8.43
2019-03-03T17:37:53.234Z,5.77
2019-03-03T17:40:23.755Z,6.30
2019-03-03T17:42:52.909Z,7.23
2019-03-03T17:45:23.418Z,6.87
2019-03-03T17:47:53.060Z,8.33
2019-03-03T17:50:29.451Z,6.97
2019-03-03T17:52:58.447Z,7.23
2019-03-03T17:55:27.429Z,8.93
2019-03-03T17:58:15.767Z,6.57
2019-03-03T18:00:46.616Z,5.80
2019-03-03T18:03:15.747Z,5.30
2019-03-03T18:05:45.078Z,6.63
2019-03-03T18:08:14.083Z,8.83
2019-03-03T18:10:43.173Z,5.90
2019-03-03T18:13:12.230Z,8.53
2019-03-03T18:15:41.184Z,8.13
2019-03-03T18:18:10.145Z,6.47
2019-03-03T18:20:39.313Z,5.83
2019-03-03T18:23:08.268Z,8.77
2019-03-03T18:25:37.260Z,7.77
2019-03-03T18:28:06.327Z,7.73
2019-03-03T18:30:35.448Z,8.13
2019-03-03T18:33:04.505Z,6.07
2019-03-03T18:35:33.620Z,9.23
2019-03-03T18:38:02.685Z,6.57
2019-03-03T18:40:31.815Z,9.07
2019-03-03T18:43:00.958Z,6.37
2019-03-03T18:45:29.974Z,5.83
2019-03-03T18:47:58.993Z,6.03
2019-03-03T18:50:29.703Z,5.90
2019-03-03T18:53:00.018Z,5.53
2019-03-03T18:55:29.435Z,8.47
2019-03-03T18:57:58.424Z,7.70
2019-03-03T19:00:31.999Z,5.70
2019-03-03T19:03:01.063Z,5.80
2019-03-03T19:05:30.191Z,4.80
2019-03-03T19:07:59.314Z,7.97
2019-03-03T19:10:30.588Z,8.43
2019-03-03T19:12:59.597Z,6.33
2019-03-03T19:15:28.643Z,7.07
2019-03-03T19:17:57.635Z,9.50
2019-03-03T19:20:26.630Z,6.10
2019-03-03T19:22:55.678Z,7.60
2019-03-03T19:25:24.669Z,10.70
2019-03-03T19:27:53.732Z,5.13
2019-03-03T19:30:26.742Z,7.03
2019-03-03T19:33:07.919Z,8.50
2019-03-03T19:35:37.026Z,6.37
2019-03-03T19:38:06.081Z,9.30
2019-03-03T19:40:35.134Z,7.00
2019-03-03T19:43:04.184Z,5.70
2019-03-03T19:45:38.759Z,6.30
2019-03-03T19:48:08.588Z,5.13
2019-03-03T19:50:37.922Z,5.90
2019-03-03T19:53:07.322Z,7.83
2019-03-03T19:55:36.378Z,6.50
2019-03-03T19:58:05.491Z,6.63
2019-03-03T20:00:38.898Z,5.40
2019-03-03T20:03:07.336Z,8.97
2019-03-03T20:05:36.487Z,9.83
2019-03-03T20:08:06.303Z,7.10
2019-03-03T20:10:35.905Z,8.03
2019-03-03T20:13:05.269Z,7.67
2019-03-03T20:15:35.181Z,5.77
2019-03-03T20:18:05.322Z,5.17
2019-03-03T20:20:34.433Z,7.87
2019-03-03T20:23:03.427Z,5.40
2019-03-03T20:25:32.590Z,7.20
2019-03-03T20:28:01.719Z,7.53
2019-03-03T20:30:30.712Z,7.40
2019-03-03T20:32:59.858Z,5.63
2019-03-03T20:35:28.855Z,4.43
2019-03-03T20:37:57.898Z,6.30
2019-03-03T20:40:27.921Z,7.43
2019-03-03T20:42:57.004Z,6.37
2019-03-03T20:45:31.876Z,4.77
2019-03-03T20:48:00.965Z,7.30
2019-03-03T20:50:30.158Z,5.77
2019-03-03T20:52:59.146Z,9.63
2019-03-03T20:55:30.327Z,8.03
2019-03-03T20:57:59.297Z,5.63
2019-03-03T21:00:29.409Z,4.67
2019-03-03T21:02:58.924Z,6.23
2019-03-03T21:05:28.144Z,8.63
2019-03-03T21:07:57.195Z,8.03
2019-03-03T21:10:31.077Z,6.03
2019-03-03T21:13:00.204Z,8.07
2019-03-03T21:15:29.279Z,5.47
2019-03-03T21:17:58.252Z,8.27
2019-03-03T21:20:27.430Z,8.20
2019-03-03T21:22:56.484Z,6.23
2019-03-03T21:25:25.494Z,6.73
2019-03-03T21:27:54.466Z,7.67
2019-03-03T21:30:24.698Z,6.33
2019-03-03T21:32:53.677Z,6.57
2019-03-03T21:35:22.739Z,6.97
2019-03-03T21:37:51.977Z,7.20
2019-03-03T21:40:26.047Z,9.30
2019-03-03T21:42:55.103Z,6.70
2019-03-03T21:45:25.456Z,4.60
2019-03-03T21:47:55.571Z,5.93
2019-03-03T21:50:26.759Z,5.63
2019-03-03T21:52:55.743Z,5.73
2019-03-03T21:55:24.787Z,7.20
2019-03-03T21:57:53.842Z,4.70
2019-03-03T22:00:25.913Z,4.40
2019-03-03T22:02:54.941Z,6.57
2019-03-03T22:05:24.020Z,10.33
2019-03-03T22:07:53.054Z,8.47
2019-03-03T22:10:23.667Z,5.53
2019-03-03T22:12:52.669Z,4.37
2019-03-03T22:15:21.696Z,3.73
2019-03-03T22:17:50.729Z,8.60
2019-03-03T22:20:19.757Z,7.00
2019-03-03T22:22:48.854Z,6.67
2019-03-03T22:25:17.842Z,5.93
2019-03-03T22:27:46.811Z,6.60
2019-03-03T22:30:17.055Z,6.07
2019-03-03T22:32:46.094Z,7.10
2019-03-03T22:35:15.161Z,6.53
2019-03-03T22:37:44.129Z,4.83
2019-03-03T22:40:18.187Z,6.50
2019-03-03T22:42:47.158Z,6.57
2019-03-03T22:45:17.383Z,7.90
2019-03-03T22:47:46.583Z,5.37
2019-03-03T22:50:17.023Z,6.50
2019-03-03T22:52:46.141Z,5.93
2019-03-03T22:55:18.037Z,6.23
2019-03-03T22:57:47.099Z,4.63
2019-03-03T23:00:44.341Z,8.10
2019-03-03T23:03:28.168Z,4.87
2019-03-03T23:06:09.018Z,6.73
2019-03-03T23:08:55.883Z,7.93
2019-03-03T23:11:30.502Z,7.60
2019-03-03T23:14:11.568Z,5.40
2019-03-03T23:16:51.882Z,7.07
2019-03-03T23:19:35.948Z,5.43
2019-03-03T23:22:16.822Z,6.03
2019-03-03T23:24:54.939Z,5.37
2019-03-03T23:27:23.916Z,5.30
2019-03-03T23:29:52.944Z,4.50
2019-03-03T23:32:22.020Z,7.50
2019-03-03T23:34:51.010Z,5.93
2019-03-03T23:37:19.998Z,4.87
2019-03-03T23:39:48.966Z,5.60
2019-03-03T23:42:17.955Z,8.50
2019-03-03T23:44:46.942Z,6.93
2019-03-03T23:47:15.943Z,6.20
2019-03-03T23:49:44.935Z,8.33
2019-03-03T23:52:13.910Z,3.17
2019-03-03T23:54:42.869Z,5.27
2019-03-03T23:57:11.856Z,5.37
2019-03-03T23:59:40.836Z,4.23
